Brierley Hill, United Kingdom
Current Conditions -  °F | °C
As of 1:50 AM on Thursday 23 Oct 2014 (Local Time) from EGBB Reporting Station
Overcast Overcast  
Wind Chill: 54°   Ceiling: 2700
Heat Index: 54°   Visibility: 6mi
Dew Point: 45°   Wind: 9mph
Humidity: 72%   Direction: 250°WSW
Pressure: 30.12"   Gusts: NA
Location:  52.47°N, 2.1°W
Report Text: EGBB 230050Z AUTO 25008KT 230V290 9999 OVC027/// 12/07 Q1020
Loading
Personal Weather Stations






























Interactive Weather Map
Tropical Storm Tracking
New forecast layout! Learn more

10-Day Weather Forecast

Advertisements
Track Severe Weather on mobile